Time;durP1;ratioP1;P1;durP2;ratioP2;P2;SDS_P1;SDS_P2;PMS_P1;PMS_P2;Temp;Humidity;BMP_temperature;BMP_pressure;BME280_temperature;BME280_humidity;BME280_pressure;Samples;Min_cycle;Max_cycle;Signal;HPM_P1;HPM_P2
2022/01/04 00:00:34;;;;;;;2.56;1.47;;;;;;;;;;365239;147;857132;-65
2022/01/04 00:01:36;;;;;;;2.73;1.34;;;;;;;;;;362535;147;858188;-64
2022/01/04 00:02:37;;;;;;;1.88;1.36;;;;;;;;;;364244;146;864440;-64
2022/01/04 00:03:40;;;;;;;1.83;1.44;;;;;;;;;;361907;147;864893;-64
2022/01/04 00:04:42;;;;;;;2.58;1.67;;;;;;;;;;359678;147;857331;-64
2022/01/04 00:05:44;;;;;;;2.60;1.64;;;;;;;;;;362454;146;857083;-65
2022/01/04 00:06:46;;;;;;;5.41;1.84;;;;;;;;;;364844;147;857518;-65
2022/01/04 00:07:47;;;;;;;2.90;1.60;;;;;;;;;;364375;147;857705;-65
2022/01/04 00:08:49;;;;;;;2.75;1.66;;;;;;;;;;364404;146;857363;-66
2022/01/04 00:09:52;;;;;;;3.65;1.51;;;;;;;;;;363381;146;856891;-65
2022/01/04 00:11:05;;;;;;;3.22;1.56;;;;;;;;;;365589;147;864646;-65
2022/01/04 00:13:21;;;;;;;2.50;1.54;;;;;;;;;;360805;146;858420;-65
2022/01/04 00:14:21;;;;;;;3.03;1.52;;;;;;;;;;363712;148;858951;-65
2022/01/04 00:15:23;;;;;;;3.33;1.71;;;;;;;;;;365029;147;864496;-65
2022/01/04 00:16:25;;;;;;;2.33;1.51;;;;;;;;;;364497;146;865667;-65
2022/01/04 00:17:28;;;;;;;3.46;1.73;;;;;;;;;;359145;147;858229;-64
2022/01/04 00:18:30;;;;;;;2.11;1.52;;;;;;;;;;362433;147;859371;-65
2022/01/04 00:19:31;;;;;;;2.86;1.60;;;;;;;;;;363448;146;857351;-66
2022/01/04 00:20:33;;;;;;;1.66;1.54;;;;;;;;;;362241;146;866408;-65
2022/01/04 00:21:35;;;;;;;1.75;1.35;;;;;;;;;;365813;147;865338;-65
2022/01/04 00:22:36;;;;;;;3.55;1.50;;;;;;;;;;364422;147;858776;-65
2022/01/04 00:23:38;;;;;;;1.84;1.24;;;;;;;;;;362952;146;858942;-65
2022/01/04 00:24:40;;;;;;;2.43;1.50;;;;;;;;;;363650;147;857323;-65
2022/01/04 00:25:41;;;;;;;2.26;1.24;;;;;;;;;;362823;147;857272;-66
2022/01/04 00:26:43;;;;;;;2.11;1.21;;;;;;;;;;363994;146;857106;-67
2022/01/04 00:27:45;;;;;;;2.82;1.48;;;;;;;;;;362656;147;864803;-64
2022/01/04 00:28:46;;;;;;;2.67;1.45;;;;;;;;;;358391;147;864729;-64
2022/01/04 00:29:48;;;;;;;2.96;1.35;;;;;;;;;;362987;146;857313;-64
2022/01/04 00:30:50;;;;;;;3.10;1.43;;;;;;;;;;361488;146;857565;-64
2022/01/04 00:31:51;;;;;;;2.98;1.44;;;;;;;;;;364096;147;865148;-65
2022/01/04 00:32:53;;;;;;;3.52;1.36;;;;;;;;;;363291;146;857249;-66
2022/01/04 00:33:54;;;;;;;1.62;1.24;;;;;;;;;;361711;146;857740;-65
2022/01/04 00:34:56;;;;;;;2.36;1.31;;;;;;;;;;361218;147;857386;-64
2022/01/04 00:35:57;;;;;;;3.44;1.62;;;;;;;;;;363174;147;857670;-64
2022/01/04 00:36:59;;;;;;;4.68;1.80;;;;;;;;;;363294;146;866058;-64
2022/01/04 00:38:00;;;;;;;2.04;1.27;;;;;;;;;;362108;146;866391;-64
2022/01/04 00:39:02;;;;;;;1.94;1.29;;;;;;;;;;363087;148;858430;-64
2022/01/04 00:40:05;;;;;;;2.55;1.37;;;;;;;;;;363701;146;858409;-65
2022/01/04 00:41:06;;;;;;;2.63;1.43;;;;;;;;;;361556;146;857309;-64
2022/01/04 00:42:08;;;;;;;1.60;1.25;;;;;;;;;;361785;147;859567;-64
2022/01/04 00:43:09;;;;;;;2.35;1.31;;;;;;;;;;364026;147;867238;-64
2022/01/04 00:44:11;;;;;;;2.01;1.26;;;;;;;;;;364696;146;858605;-64
2022/01/04 00:45:12;;;;;;;2.82;1.08;;;;;;;;;;363447;147;857244;-64
2022/01/04 00:46:17;;;;;;;2.58;1.50;;;;;;;;;;363292;147;857195;-65
2022/01/04 00:47:25;;;;;;;2.49;1.30;;;;;;;;;;363736;146;863856;-66
2022/01/04 00:49:22;;;;;;;3.29;1.26;;;;;;;;;;360071;146;857835;-67
2022/01/04 00:50:27;;;;;;;3.83;1.92;;;;;;;;;;362712;147;864377;-64
2022/01/04 00:51:29;;;;;;;2.31;1.34;;;;;;;;;;363210;146;858885;-67
2022/01/04 00:52:31;;;;;;;2.14;1.25;;;;;;;;;;359788;147;857995;-65
2022/01/04 00:53:33;;;;;;;5.09;1.43;;;;;;;;;;359535;147;866136;-65
2022/01/04 00:54:35;;;;;;;2.31;1.41;;;;;;;;;;363582;146;860127;-64
2022/01/04 00:55:36;;;;;;;2.22;1.13;;;;;;;;;;362818;147;857323;-66
2022/01/04 00:56:38;;;;;;;4.76;1.54;;;;;;;;;;365970;147;857239;-66
2022/01/04 00:57:40;;;;;;;3.52;1.59;;;;;;;;;;365773;147;857198;-64
2022/01/04 00:58:41;;;;;;;2.05;1.21;;;;;;;;;;362078;146;857660;-64
2022/01/04 00:59:43;;;;;;;3.02;1.54;;;;;;;;;;359758;147;857218;-66
2022/01/04 01:00:45;;;;;;;2.13;1.39;;;;;;;;;;362949;146;857339;-64
2022/01/04 01:01:46;;;;;;;1.65;1.15;;;;;;;;;;364370;146;864888;-64
2022/01/04 01:02:48;;;;;;;2.59;1.40;;;;;;;;;;363220;147;857268;-66
2022/01/04 01:03:49;;;;;;;2.28;1.26;;;;;;;;;;363497;147;857278;-64
2022/01/04 01:04:51;;;;;;;2.19;1.30;;;;;;;;;;363789;146;857241;-65
2022/01/04 01:05:52;;;;;;;2.78;1.45;;;;;;;;;;364277;146;857296;-65
2022/01/04 01:06:54;;;;;;;2.64;1.38;;;;;;;;;;365858;147;857305;-65
2022/01/04 01:07:56;;;;;;;2.16;1.40;;;;;;;;;;363312;146;857233;-65
2022/01/04 01:08:58;;;;;;;1.49;1.20;;;;;;;;;;361205;146;864977;-64
2022/01/04 01:10:32;;;;;;;3.46;1.06;;;;;;;;;;362532;147;859343;-65
2022/01/04 01:11:15;;;;;;;1.71;1.34;;;;;;;;;;360894;147;864719;-65
2022/01/04 01:12:17;;;;;;;3.78;1.54;;;;;;;;;;363843;146;859323;-65
2022/01/04 01:13:18;;;;;;;2.10;1.37;;;;;;;;;;362809;147;864519;-64
2022/01/04 01:14:20;;;;;;;1.90;1.39;;;;;;;;;;358369;147;857696;-64
2022/01/04 01:15:21;;;;;;;2.02;1.16;;;;;;;;;;363592;146;857510;-65
2022/01/04 01:16:23;;;;;;;2.13;1.56;;;;;;;;;;360751;147;858652;-65
2022/01/04 01:17:25;;;;;;;2.46;1.38;;;;;;;;;;352604;150;865827;-64
2022/01/04 01:18:26;;;;;;;2.66;1.13;;;;;;;;;;364592;147;857209;-65
2022/01/04 01:19:28;;;;;;;1.72;1.40;;;;;;;;;;362213;146;857312;-64
2022/01/04 01:20:29;;;;;;;2.64;1.41;;;;;;;;;;359949;147;866658;-65
2022/01/04 01:21:31;;;;;;;2.10;1.04;;;;;;;;;;363929;147;865493;-65
2022/01/04 01:22:33;;;;;;;3.11;1.42;;;;;;;;;;363225;146;866712;-65
2022/01/04 01:23:34;;;;;;;1.74;1.19;;;;;;;;;;363651;146;857251;-65
2022/01/04 01:24:36;;;;;;;1.81;1.14;;;;;;;;;;360049;147;857245;-65
2022/01/04 01:25:38;;;;;;;2.92;1.23;;;;;;;;;;363331;146;864849;-65
2022/01/04 01:26:39;;;;;;;3.01;1.18;;;;;;;;;;363261;146;863601;-65
2022/01/04 01:27:41;;;;;;;2.62;1.23;;;;;;;;;;359865;149;864496;-65
2022/01/04 01:28:43;;;;;;;2.17;1.42;;;;;;;;;;362154;147;859115;-65
2022/01/04 01:29:44;;;;;;;2.42;1.39;;;;;;;;;;365206;146;858879;-65
2022/01/04 01:30:46;;;;;;;2.47;1.12;;;;;;;;;;365460;147;865592;-65
2022/01/04 01:31:48;;;;;;;2.81;1.21;;;;;;;;;;364443;144;865792;-64
2022/01/04 01:32:51;;;;;;;2.21;1.29;;;;;;;;;;362539;147;860791;-65
2022/01/04 01:33:52;;;;;;;1.98;1.21;;;;;;;;;;364399;146;857410;-65
2022/01/04 01:34:54;;;;;;;5.60;1.32;;;;;;;;;;363646;147;858371;-65
2022/01/04 01:35:56;;;;;;;1.89;1.38;;;;;;;;;;364820;146;857525;-65
2022/01/04 01:36:57;;;;;;;2.30;1.43;;;;;;;;;;361491;146;857740;-63
2022/01/04 01:37:59;;;;;;;3.02;1.40;;;;;;;;;;360064;147;857504;-65
2022/01/04 01:39:00;;;;;;;2.24;1.59;;;;;;;;;;353728;150;857722;-66
2022/01/04 01:40:03;;;;;;;2.01;1.31;;;;;;;;;;361757;146;864975;-63
2022/01/04 01:41:04;;;;;;;1.61;1.00;;;;;;;;;;360949;147;857165;-65
2022/01/04 01:42:06;;;;;;;4.09;1.39;;;;;;;;;;361226;148;857507;-65
2022/01/04 01:43:08;;;;;;;2.61;1.11;;;;;;;;;;365206;147;857325;-65
2022/01/04 01:44:09;;;;;;;1.91;1.29;;;;;;;;;;360742;146;858762;-65
2022/01/04 01:45:12;;;;;;;1.73;1.14;;;;;;;;;;365011;147;858474;-64
2022/01/04 01:46:14;;;;;;;2.62;1.26;;;;;;;;;;364208;145;856261;-65
2022/01/04 01:47:16;;;;;;;4.89;1.61;;;;;;;;;;361273;146;856569;-65
2022/01/04 01:48:18;;;;;;;1.63;1.43;;;;;;;;;;365492;146;856056;-66
2022/01/04 01:49:19;;;;;;;2.54;1.17;;;;;;;;;;364159;147;863631;-66
2022/01/04 01:50:22;;;;;;;3.15;1.30;;;;;;;;;;366592;147;856097;-66
2022/01/04 01:51:24;;;;;;;1.64;1.29;;;;;;;;;;361774;147;856305;-66
2022/01/04 01:52:25;;;;;;;2.07;1.14;;;;;;;;;;367059;147;857040;-66
2022/01/04 01:53:27;;;;;;;2.17;1.20;;;;;;;;;;366472;147;856535;-66
2022/01/04 01:54:28;;;;;;;1.58;1.32;;;;;;;;;;366837;146;856429;-67
2022/01/04 01:55:30;;;;;;;2.16;1.11;;;;;;;;;;362219;147;856408;-66
2022/01/04 01:56:31;;;;;;;2.00;1.22;;;;;;;;;;362472;147;856160;-66
2022/01/04 01:57:33;;;;;;;2.96;1.37;;;;;;;;;;365883;146;856689;-66
2022/01/04 01:58:35;;;;;;;2.29;1.26;;;;;;;;;;360428;147;863686;-66
2022/01/04 01:59:36;;;;;;;1.99;1.13;;;;;;;;;;362436;148;863189;-66
2022/01/04 02:00:38;;;;;;;3.09;1.26;;;;;;;;;;363560;147;863725;-66
2022/01/04 02:01:39;;;;;;;2.75;1.21;;;;;;;;;;366044;145;856968;-66
2022/01/04 02:04:31;;;;;;;2.07;1.22;;;;;;;6.95;74.51;98495.42;370473;142;870056;-60
2022/01/04 02:05:33;;;;;;;3.09;1.11;;;;;;;6.83;74.30;98499.89;360055;146;857169;-60
2022/01/04 02:06:34;;;;;;;1.32;0.93;;;;;;;6.85;74.42;98505.00;365697;147;858961;-60
2022/01/04 02:07:37;;;;;;;3.11;1.81;;;;;;;6.87;74.41;98506.69;364294;146;856869;-59
2022/01/04 02:08:39;;;;;;;1.13;0.79;;;;;;;6.94;74.39;98501.44;365021;146;864837;-60
2022/01/04 02:09:44;;;;;;;1.42;0.97;;;;;;;7.02;73.95;98502.16;366310;147;857287;-60
2022/01/04 02:10:45;;;;;;;0.98;0.56;;;;;;;7.01;73.65;98500.46;365649;147;858309;-60
2022/01/04 02:11:46;;;;;;;1.06;0.78;;;;;;;;;;364692;146;864783;-61
2022/01/04 02:12:49;;;;;;;2.39;0.98;;;;;;;;;;366417;147;857329;-61
2022/01/04 02:13:50;;;;;;;1.54;0.81;;;;;;;;;;361595;147;861575;-61
2022/01/04 02:14:52;;;;;;;1.91;1.02;;;;;;;;;;364713;146;859302;-61
2022/01/04 02:15:54;;;;;;;3.30;0.96;;;;;;;;;;366992;145;860823;-61
2022/01/04 02:16:56;;;;;;;1.77;1.00;;;;;;;;;;365018;147;857385;-61
2022/01/04 02:17:57;;;;;;;1.64;0.82;;;;;;;;;;364204;147;857789;-61
2022/01/04 02:19:00;;;;;;;10.59;1.25;;;;;;;;;;362880;145;857261;-61
2022/01/04 02:20:02;;;;;;;2.45;0.71;;;;;;;;;;365182;146;858927;-61
2022/01/04 02:21:03;;;;;;;3.97;0.78;;;;;;;;;;366561;147;857442;-60
2022/01/04 02:22:05;;;;;;;3.00;0.97;;;;;;;;;;358720;147;859494;-60
2022/01/04 02:23:06;;;;;;;3.41;0.90;;;;;;;;;;355670;150;865453;-60
2022/01/04 02:24:08;;;;;;;1.16;0.97;;;;;;;;;;354621;148;858485;-60
2022/01/04 02:25:09;;;;;;;4.05;1.19;;;;;;;;;;353838;146;857937;-60
2022/01/04 02:26:12;;;;;;;1.11;0.80;;;;;;;;;;353950;149;857647;-60
2022/01/04 02:27:14;;;;;;;3.50;0.93;;;;;;;;;;357741;146;860053;-60
2022/01/04 02:28:18;;;;;;;2.69;0.98;;;;;;;;;;352558;150;859055;-60
2022/01/04 02:29:19;;;;;;;3.33;0.78;;;;;;;;;;355896;146;865253;-61
2022/01/04 02:30:21;;;;;;;2.92;1.00;;;;;;;;;;358725;146;866642;-61
2022/01/04 02:31:22;;;;;;;2.04;0.94;;;;;;;;;;356047;149;857650;-60
2022/01/04 02:32:24;;;;;;;4.36;0.91;;;;;;;;;;355162;148;864881;-61
2022/01/04 02:33:25;;;;;;;3.06;0.71;;;;;;;;;;354412;148;857189;-61
2022/01/04 02:34:27;;;;;;;1.26;0.84;;;;;;;;;;355364;150;856046;-61
2022/01/04 02:35:33;;;;;;;2.29;0.80;;;;;;;;;;354969;149;857265;-61
2022/01/04 02:36:32;;;;;;;2.28;0.79;;;;;;;;;;353277;148;857199;-60
2022/01/04 02:37:34;;;;;;;1.19;0.88;;;;;;;;;;355590;146;858256;-61
2022/01/04 02:38:37;;;;;;;1.94;0.75;;;;;;;;;;355964;149;865286;-61
2022/01/04 02:39:38;;;;;;;1.22;0.77;;;;;;;;;;356008;147;857245;-61
2022/01/04 02:40:40;;;;;;;1.09;0.74;;;;;;;;;;355201;146;865411;-61
2022/01/04 02:41:41;;;;;;;0.84;0.60;;;;;;;;;;356352;146;857204;-60
2022/01/04 02:42:43;;;;;;;0.95;0.61;;;;;;;;;;354646;148;857243;-60
2022/01/04 02:43:44;;;;;;;0.83;0.68;;;;;;;;;;355558;148;866550;-60
2022/01/04 02:44:46;;;;;;;0.99;0.57;;;;;;;;;;356083;146;866590;-60
2022/01/04 02:45:48;;;;;;;1.04;0.76;;;;;;;;;;356019;146;867220;-60
2022/01/04 02:46:49;;;;;;;1.04;0.50;;;;;;;;;;356237;148;860344;-60
2022/01/04 02:47:51;;;;;;;1.20;0.76;;;;;;;;;;358936;146;865932;-60
2022/01/04 02:48:52;;;;;;;1.26;0.71;;;;;;;;;;357644;149;859806;-61
2022/01/04 02:49:55;;;;;;;0.96;0.66;;;;;;;;;;354592;147;865554;-60
2022/01/04 02:50:56;;;;;;;3.44;0.75;;;;;;;;;;357604;149;858369;-61
2022/01/04 02:51:58;;;;;;;1.37;0.70;;;;;;;;;;353774;150;857425;-59
2022/01/04 02:52:59;;;;;;;0.91;0.61;;;;;;;;;;353846;149;857816;-60
2022/01/04 03:03:51;;;;;;;1.61;0.59;;;;;;;6.26;75.20;98514.41;405035;130;860366;-60
2022/01/04 03:04:52;;;;;;;0.61;0.61;;;;;;;6.19;74.99;98525.66;393574;135;860014;-60
2022/01/04 03:05:54;;;;;;;0.95;0.65;;;;;;;6.11;75.17;98519.77;391744;135;857291;-62
2022/01/04 03:06:57;;;;;;;1.13;0.50;;;;;;;6.10;75.39;98518.92;393240;135;864947;-61
2022/01/04 03:07:58;;;;;;;1.12;0.50;;;;;;;6.21;75.21;98520.51;395749;135;856299;-61
2022/01/04 03:09:00;;;;;;;0.77;0.49;;;;;;;;;;395960;135;857321;-61
2022/01/04 03:10:02;;;;;;;1.19;0.56;;;;;;;;;;395735;135;865049;-60
2022/01/04 03:11:04;;;;;;;1.13;0.53;;;;;;;;;;394608;135;857848;-61
2022/01/04 03:12:06;;;;;;;0.50;0.50;;;;;;;;;;389563;135;857705;-61
2022/01/04 03:13:09;;;;;;;1.17;0.59;;;;;;;;;;388675;138;865478;-61
2022/01/04 03:14:11;;;;;;;1.18;0.51;;;;;;;;;;393538;135;858649;-61
2022/01/04 03:15:13;;;;;;;1.30;0.60;;;;;;;;;;392761;135;857745;-60
2022/01/04 03:16:16;;;;;;;2.26;0.67;;;;;;;;;;387264;138;857121;-61
2022/01/04 03:17:17;;;;;;;1.86;0.76;;;;;;;;;;385262;138;857593;-60
2022/01/04 03:18:19;;;;;;;1.35;0.74;;;;;;;;;;393504;135;857438;-60
2022/01/04 03:19:21;;;;;;;0.94;0.39;;;;;;;;;;396721;135;866489;-61
2022/01/04 03:20:23;;;;;;;1.55;0.70;;;;;;;;;;396662;135;857594;-61
2022/01/04 03:21:24;;;;;;;2.11;0.98;;;;;;;;;;393077;134;857211;-61
2022/01/04 03:22:26;;;;;;;2.90;0.94;;;;;;;;;;388315;137;865753;-61
2022/01/04 03:23:27;;;;;;;2.22;0.70;;;;;;;;;;387949;138;859444;-61
2022/01/04 03:24:29;;;;;;;1.19;0.74;;;;;;;;;;388097;135;865707;-62
2022/01/04 03:25:30;;;;;;;1.01;0.61;;;;;;;;;;386648;137;867273;-61
2022/01/04 03:26:32;;;;;;;1.85;0.80;;;;;;;;;;389870;136;860645;-61
2022/01/04 03:27:34;;;;;;;1.47;0.64;;;;;;;;;;388146;137;857677;-60
2022/01/04 03:28:36;;;;;;;0.76;0.59;;;;;;;;;;389151;135;865247;-60
2022/01/04 03:29:38;;;;;;;2.79;0.87;;;;;;;;;;387684;136;857165;-60
2022/01/04 03:30:39;;;;;;;1.61;0.63;;;;;;;;;;385389;137;857112;-60
2022/01/04 03:31:41;;;;;;;4.59;0.79;;;;;;;;;;386747;136;864702;-59
2022/01/04 03:32:42;;;;;;;2.31;0.79;;;;;;;;;;389171;137;864338;-59
2022/01/04 03:33:44;;;;;;;4.86;1.06;;;;;;;;;;385217;136;864832;-59
2022/01/04 03:34:45;;;;;;;0.99;0.78;;;;;;;;;;386403;136;864344;-60
2022/01/04 03:35:47;;;;;;;1.76;0.74;;;;;;;;;;389116;135;857279;-62
2022/01/04 03:36:49;;;;;;;2.22;0.79;;;;;;;;;;389374;135;857344;-61
2022/01/04 03:37:50;;;;;;;2.76;0.76;;;;;;;;;;386108;138;867318;-62
2022/01/04 03:38:52;;;;;;;2.68;0.83;;;;;;;;;;387655;135;865175;-62
2022/01/04 03:39:54;;;;;;;2.33;0.96;;;;;;;;;;387054;136;858889;-62
2022/01/04 03:40:55;;;;;;;3.56;0.94;;;;;;;;;;382831;138;857987;-62
2022/01/04 03:41:57;;;;;;;2.14;0.88;;;;;;;;;;388799;135;865019;-60
2022/01/04 03:42:58;;;;;;;1.41;0.95;;;;;;;;;;384619;138;863886;-61
2022/01/04 03:44:00;;;;;;;1.00;0.74;;;;;;;;;;383338;138;865037;-60
2022/01/04 03:45:01;;;;;;;3.46;0.79;;;;;;;;;;388407;137;857170;-61
2022/01/04 03:46:06;;;;;;;3.27;0.70;;;;;;;;;;385248;136;857196;-60
2022/01/04 03:47:08;;;;;;;1.63;0.82;;;;;;;;;;389029;138;858521;-60
2022/01/04 03:48:09;;;;;;;1.46;0.76;;;;;;;;;;386672;136;864753;-60
2022/01/04 03:49:11;;;;;;;2.62;0.76;;;;;;;;;;384817;137;866111;-60
2022/01/04 03:50:13;;;;;;;2.45;0.80;;;;;;;;;;385709;137;866674;-59
2022/01/04 03:51:15;;;;;;;2.28;0.94;;;;;;;;;;388809;135;857271;-59
2022/01/04 03:52:16;;;;;;;3.91;0.90;;;;;;;;;;387075;137;857991;-60
2022/01/04 03:53:18;;;;;;;1.20;0.83;;;;;;;;;;385452;136;858360;-59
2022/01/04 03:54:23;;;;;;;1.85;0.77;;;;;;;;;;384547;138;857351;-59
2022/01/04 03:55:22;;;;;;;1.87;0.98;;;;;;;;;;386570;136;858666;-60
2022/01/04 03:56:24;;;;;;;1.54;0.79;;;;;;;;;;386447;137;857153;-61
2022/01/04 03:57:26;;;;;;;2.23;1.01;;;;;;;;;;387649;136;866216;-60
2022/01/04 03:58:27;;;;;;;2.92;0.95;;;;;;;;;;385169;136;866281;-60
2022/01/04 03:59:29;;;;;;;1.46;0.79;;;;;;;;;;385598;135;864956;-61
2022/01/04 04:00:30;;;;;;;2.26;1.01;;;;;;;;;;389672;135;858844;-62
2022/01/04 04:01:32;;;;;;;3.56;1.00;;;;;;;;;;385944;135;864915;-61
2022/01/04 04:02:34;;;;;;;3.63;1.19;;;;;;;;;;393142;135;857351;-59
2022/01/04 04:03:35;;;;;;;1.91;1.27;;;;;;;;;;387230;135;864432;-60
2022/01/04 04:04:37;;;;;;;4.46;1.36;;;;;;;;;;382944;136;864865;-58
2022/01/04 04:05:38;;;;;;;2.27;1.09;;;;;;;;;;394442;135;857137;-60
2022/01/04 04:06:40;;;;;;;1.37;0.94;;;;;;;;;;387263;135;859628;-60
2022/01/04 04:07:42;;;;;;;2.97;1.46;;;;;;;;;;386472;138;866051;-60
2022/01/04 04:08:44;;;;;;;3.05;1.45;;;;;;;;;;387936;138;857377;-59
2022/01/04 04:09:45;;;;;;;2.72;1.41;;;;;;;;;;386781;137;857371;-59
2022/01/04 04:10:47;;;;;;;2.81;1.48;;;;;;;;;;383762;137;859777;-60
2022/01/04 04:11:48;;;;;;;1.89;1.32;;;;;;;;;;388609;138;866360;-61
2022/01/04 04:12:50;;;;;;;2.76;1.33;;;;;;;;;;389602;138;865640;-59
2022/01/04 04:13:52;;;;;;;2.62;1.22;;;;;;;;;;386164;137;865768;-60
2022/01/04 04:14:53;;;;;;;3.81;1.88;;;;;;;;;;386691;138;865877;-61
2022/01/04 04:15:55;;;;;;;1.99;1.22;;;;;;;;;;384125;136;865659;-60
2022/01/04 04:16:57;;;;;;;3.22;1.48;;;;;;;;;;386663;135;865861;-60
2022/01/04 04:17:58;;;;;;;6.79;1.82;;;;;;;;;;385562;135;866092;-60
2022/01/04 04:19:00;;;;;;;4.10;2.37;;;;;;;;;;384885;138;865530;-60
2022/01/04 04:20:02;;;;;;;2.06;1.59;;;;;;;;;;388101;136;859768;-61
2022/01/04 04:21:03;;;;;;;3.85;1.91;;;;;;;;;;387187;136;864571;-59
2022/01/04 04:22:05;;;;;;;2.94;1.80;;;;;;;;;;389642;135;857049;-61
2022/01/04 04:23:08;;;;;;;4.69;2.01;;;;;;;;;;381867;138;858917;-60
2022/01/04 04:24:10;;;;;;;3.39;2.42;;;;;;;;;;385094;136;856457;-59
2022/01/04 04:25:12;;;;;;;6.70;1.96;;;;;;;;;;384284;136;864704;-59
2022/01/04 04:26:13;;;;;;;2.85;2.16;;;;;;;;;;381539;138;866284;-63
2022/01/04 04:27:15;;;;;;;4.43;2.12;;;;;;;;;;385531;135;857794;-60
2022/01/04 04:28:17;;;;;;;4.13;2.21;;;;;;;;;;386161;135;864805;-60
2022/01/04 04:29:18;;;;;;;2.69;2.01;;;;;;;;;;387944;136;857389;-59
2022/01/04 04:30:20;;;;;;;2.98;2.28;;;;;;;;;;388741;135;864422;-59
2022/01/04 04:31:22;;;;;;;4.22;2.29;;;;;;;;;;387052;136;857146;-60
2022/01/04 04:32:23;;;;;;;4.96;2.36;;;;;;;;;;383150;136;866719;-60
2022/01/04 04:33:25;;;;;;;4.26;2.29;;;;;;;;;;385896;135;866497;-59
2022/01/04 04:34:26;;;;;;;5.54;2.51;;;;;;;;;;385350;136;865680;-60
2022/01/04 04:35:29;;;;;;;4.84;2.51;;;;;;;;;;384821;136;859441;-59
2022/01/04 04:36:31;;;;;;;5.78;2.04;;;;;;;;;;385640;135;859054;-63
2022/01/04 04:37:33;;;;;;;3.89;2.39;;;;;;;;;;390153;136;857851;-58
2022/01/04 04:38:35;;;;;;;3.74;2.61;;;;;;;;;;385373;136;865367;-58
2022/01/04 04:39:36;;;;;;;3.74;2.46;;;;;;;;;;383717;136;856790;-59
2022/01/04 04:40:38;;;;;;;5.61;2.55;;;;;;;;;;385198;138;857311;-60
2022/01/04 04:41:39;;;;;;;4.46;2.23;;;;;;;;;;386649;135;864757;-58
2022/01/04 04:42:41;;;;;;;4.76;2.51;;;;;;;;;;387362;136;865754;-59
2022/01/04 04:43:43;;;;;;;4.77;2.56;;;;;;;;;;388162;136;857165;-57
2022/01/04 04:44:45;;;;;;;5.72;2.96;;;;;;;;;;388499;136;857199;-59
2022/01/04 04:45:46;;;;;;;3.70;2.57;;;;;;;;;;386041;137;864796;-59
2022/01/04 04:46:49;;;;;;;4.69;2.41;;;;;;;;;;383848;136;857451;-59
2022/01/04 04:47:51;;;;;;;4.02;2.86;;;;;;;;;;384655;136;857173;-59
2022/01/04 04:48:52;;;;;;;4.44;2.75;;;;;;;;;;386199;136;857333;-58
2022/01/04 04:49:54;;;;;;;4.81;2.86;;;;;;;;;;384108;138;857377;-59
2022/01/04 04:50:55;;;;;;;5.07;2.96;;;;;;;;;;382008;138;857838;-57
2022/01/04 04:51:59;;;;;;;3.73;2.72;;;;;;;;;;384153;136;858677;-59
2022/01/04 04:53:01;;;;;;;5.02;2.86;;;;;;;;;;384743;138;864356;-58
2022/01/04 04:54:02;;;;;;;6.23;2.79;;;;;;;;;;386874;136;857142;-58
2022/01/04 04:55:04;;;;;;;3.06;2.69;;;;;;;;;;387801;137;857149;-59
2022/01/04 04:56:06;;;;;;;5.31;2.63;;;;;;;;;;387850;137;860630;-58
2022/01/04 04:57:08;;;;;;;4.01;2.34;;;;;;;;;;388321;136;858563;-59
2022/01/04 04:58:10;;;;;;;4.08;2.73;;;;;;;;;;386210;136;866992;-61
2022/01/04 04:59:12;;;;;;;6.17;2.57;;;;;;;;;;386119;135;865575;-59
2022/01/04 05:00:14;;;;;;;4.50;2.19;;;;;;;;;;386465;136;857243;-57
2022/01/04 05:01:16;;;;;;;4.31;2.24;;;;;;;;;;386146;136;857704;-60
2022/01/04 05:02:18;;;;;;;3.14;2.37;;;;;;;;;;388126;135;857110;-59
2022/01/04 05:03:19;;;;;;;2.29;2.09;;;;;;;;;;386857;137;866576;-62
2022/01/04 05:04:21;;;;;;;3.64;1.97;;;;;;;;;;391506;136;860119;-59
2022/01/04 05:05:22;;;;;;;2.92;2.09;;;;;;;;;;387748;137;860869;-60
2022/01/04 05:06:25;;;;;;;3.44;2.21;;;;;;;;;;388710;135;867033;-60
2022/01/04 05:07:27;;;;;;;4.09;2.55;;;;;;;;;;386577;136;864734;-59
2022/01/04 05:08:29;;;;;;;3.44;2.34;;;;;;;;;;386303;138;857956;-59
2022/01/04 05:09:30;;;;;;;3.49;2.36;;;;;;;;;;385643;135;864696;-59
2022/01/04 05:10:32;;;;;;;3.67;2.38;;;;;;;;;;386297;136;864715;-60
2022/01/04 05:11:34;;;;;;;2.75;2.15;;;;;;;;;;384795;138;866499;-60
2022/01/04 05:12:35;;;;;;;3.34;2.34;;;;;;;;;;383549;135;865364;-59
2022/01/04 05:13:37;;;;;;;3.27;2.16;;;;;;;;;;387000;135;856754;-59
2022/01/04 05:14:44;;;;;;;3.59;2.30;;;;;;;;;;386678;136;860155;-60
2022/01/04 05:15:42;;;;;;;5.76;2.46;;;;;;;;;;386150;138;864684;-57
2022/01/04 05:16:44;;;;;;;3.56;2.36;;;;;;;;;;379431;139;858740;-59
2022/01/04 05:17:45;;;;;;;3.36;2.31;;;;;;;;;;385039;136;864753;-59
2022/01/04 05:18:47;;;;;;;4.33;2.33;;;;;;;;;;387073;136;858163;-59
2022/01/04 05:19:48;;;;;;;2.96;2.14;;;;;;;;;;387609;135;858778;-59
2022/01/04 05:20:50;;;;;;;4.59;2.82;;;;;;;;;;385945;137;858756;-59
2022/01/04 05:21:51;;;;;;;4.46;2.21;;;;;;;;;;385058;138;858767;-60
2022/01/04 05:22:53;;;;;;;4.27;2.34;;;;;;;;;;388820;137;864904;-60
2022/01/04 05:23:55;;;;;;;5.09;2.41;;;;;;;;;;385971;135;862937;-59
2022/01/04 05:24:56;;;;;;;3.25;2.30;;;;;;;;;;384955;136;860057;-58
2022/01/04 05:25:58;;;;;;;2.52;2.00;;;;;;;;;;386925;136;860019;-57
2022/01/04 05:26:59;;;;;;;4.17;2.37;;;;;;;;;;385271;136;856488;-58
2022/01/04 05:28:01;;;;;;;4.37;2.41;;;;;;;;;;387908;137;864820;-59
2022/01/04 05:29:02;;;;;;;3.44;2.46;;;;;;;;;;382138;138;857819;-60
2022/01/04 05:30:05;;;;;;;2.93;2.48;;;;;;;;;;389371;135;858202;-59
2022/01/04 05:31:06;;;;;;;3.87;2.85;;;;;;;;;;385576;137;866515;-59
2022/01/04 05:32:08;;;;;;;6.74;2.58;;;;;;;;;;383910;136;859695;-57
2022/01/04 05:33:09;;;;;;;2.94;2.33;;;;;;;;;;383236;136;864663;-58
2022/01/04 05:34:11;;;;;;;5.37;2.66;;;;;;;;;;387560;136;866494;-61
2022/01/04 05:35:12;;;;;;;3.64;2.50;;;;;;;;;;384818;136;866398;-61
2022/01/04 05:36:15;;;;;;;3.93;2.71;;;;;;;;;;386479;135;866079;-58
2022/01/04 05:37:16;;;;;;;3.05;2.51;;;;;;;;;;386284;136;856000;-59
2022/01/04 05:38:18;;;;;;;4.12;2.80;;;;;;;;;;385839;136;856951;-58
2022/01/04 05:39:19;;;;;;;3.81;2.31;;;;;;;;;;387041;135;863939;-58
2022/01/04 05:40:22;;;;;;;5.81;2.67;;;;;;;;;;386657;136;856141;-59
2022/01/04 05:43:24;;;;;;;2.97;2.56;;;;;;;6.28;78.05;98635.22;372173;141;875087;-59
2022/01/04 05:44:25;;;;;;;3.26;1.75;;;;;;;6.23;77.63;98635.27;366440;144;857137;-59
2022/01/04 05:45:28;;;;;;;4.32;1.79;;;;;;;6.16;77.31;98637.94;366592;144;857283;-59
2022/01/04 05:46:30;;;;;;;2.66;1.61;;;;;;;6.21;77.26;98643.87;372206;144;864994;-59
2022/01/04 05:47:32;;;;;;;5.03;1.65;;;;;;;6.31;77.45;98645.47;369109;144;858671;-58
2022/01/04 05:48:34;;;;;;;2.61;1.52;;;;;;;6.40;77.12;98642.79;367288;144;866273;-59
2022/01/04 05:49:36;;;;;;;3.36;1.84;;;;;;;6.52;76.82;98646.95;367714;144;864679;-58
2022/01/04 05:50:38;;;;;;;2.29;1.61;;;;;;;6.65;76.31;98644.22;368482;144;865284;-58
2022/01/04 05:51:40;;;;;;;2.21;1.67;;;;;;;;;;367919;144;865985;-58
2022/01/04 05:52:41;;;;;;;2.61;1.58;;;;;;;;;;369031;144;866224;-59
2022/01/04 05:53:43;;;;;;;1.53;1.40;;;;;;;;;;369652;144;866210;-59
2022/01/04 05:54:46;;;;;;;11.51;2.91;;;;;;;;;;368911;144;859724;-58
2022/01/04 05:55:48;;;;;;;2.02;1.57;;;;;;;;;;366259;144;858864;-58
2022/01/04 05:56:49;;;;;;;2.85;1.84;;;;;;;;;;366086;144;858659;-57
2022/01/04 05:57:51;;;;;;;3.71;2.13;;;;;;;;;;366463;144;866759;-59
2022/01/04 05:58:53;;;;;;;5.19;2.23;;;;;;;;;;367842;144;859127;-60
2022/01/04 05:59:54;;;;;;;3.69;2.00;;;;;;;;;;368110;144;859458;-59
2022/01/04 06:00:56;;;;;;;2.91;2.12;;;;;;;;;;368173;144;858188;-59
2022/01/04 06:01:57;;;;;;;3.98;2.51;;;;;;;;;;364076;144;864896;-59
2022/01/04 06:03:00;;;;;;;3.36;2.03;;;;;;;;;;362722;146;863924;-60
2022/01/04 06:04:02;;;;;;;3.65;2.53;;;;;;;;;;364189;147;866692;-59
2022/01/04 06:05:04;;;;;;;4.13;2.83;;;;;;;;;;362665;147;865730;-60
2022/01/04 06:06:06;;;;;;;3.09;2.14;;;;;;;;;;361905;146;863655;-60
2022/01/04 06:07:07;;;;;;;4.40;2.52;;;;;;;;;;362708;147;856359;-59
2022/01/04 06:08:10;;;;;;;3.36;2.26;;;;;;;;;;364851;147;857176;-59
2022/01/04 06:09:20;;;;;;;3.82;2.61;;;;;;;;;;361505;147;857388;-58
2022/01/04 06:10:16;;;;;;;3.78;2.49;;;;;;;;;;360806;146;857164;-58
2022/01/04 06:15:07;;;;;;;3.62;2.51;;;;;;;;;;361591;148;857888;-58
2022/01/04 06:16:09;;;;;;;4.68;2.64;;;;;;;;;;361732;147;861401;-58
2022/01/04 06:17:11;;;;;;;3.51;2.69;;;;;;;;;;362624;146;858607;-58
2022/01/04 06:18:12;;;;;;;5.94;2.47;;;;;;;;;;361951;146;864629;-59
2022/01/04 06:19:14;;;;;;;4.81;2.55;;;;;;;;;;362784;147;859861;-59